createdAt,value
2018-11-07T00:01:08.777Z,12.23
2018-11-07T00:03:37.014Z,11.23
2018-11-07T00:06:05.334Z,11.67
2018-11-07T00:08:33.562Z,13.30
2018-11-07T00:11:01.747Z,12.80
2018-11-07T00:13:30.009Z,12.60
2018-11-07T00:15:58.189Z,13.40
2018-11-07T00:18:26.366Z,11.77
2018-11-07T00:20:54.526Z,13.50
2018-11-07T00:23:22.688Z,12.47
2018-11-07T00:25:50.878Z,11.10
2018-11-07T00:28:19.152Z,11.63
2018-11-07T00:30:47.344Z,11.93
2018-11-07T00:33:15.536Z,11.33
2018-11-07T00:35:43.774Z,12.53
2018-11-07T00:38:11.934Z,12.97
2018-11-07T00:40:40.446Z,13.07
2018-11-07T00:43:08.618Z,11.60
2018-11-07T00:45:36.785Z,11.13
2018-11-07T00:48:04.978Z,12.63
2018-11-07T00:50:33.138Z,13.27
2018-11-07T00:53:01.308Z,13.70
2018-11-07T00:55:29.841Z,13.10
2018-11-07T00:57:58.094Z,14.07
2018-11-07T01:00:26.341Z,13.50
2018-11-07T01:02:54.532Z,15.50
2018-11-07T01:05:22.786Z,14.67
2018-11-07T01:07:50.968Z,14.70
2018-11-07T01:10:19.137Z,16.07
2018-11-07T01:12:47.413Z,14.40
2018-11-07T01:15:15.584Z,13.87
2018-11-07T01:17:43.772Z,13.90
2018-11-07T01:20:13.196Z,15.23
2018-11-07T01:22:41.357Z,14.60
2018-11-07T01:25:09.899Z,13.43
2018-11-07T01:27:38.252Z,13.70
2018-11-07T01:30:08.873Z,14.53
2018-11-07T01:32:37.059Z,14.43
2018-11-07T01:35:05.807Z,13.43
2018-11-07T01:37:33.984Z,13.53
2018-11-07T01:40:02.172Z,13.70
2018-11-07T01:42:30.421Z,13.80
2018-11-07T01:44:59.165Z,14.63
2018-11-07T01:47:28.419Z,13.07
2018-11-07T01:49:56.744Z,13.40
2018-11-07T01:52:24.953Z,12.83
2018-11-07T01:54:53.469Z,12.07
2018-11-07T01:57:21.629Z,13.50
2018-11-07T01:59:49.887Z,13.70
2018-11-07T02:02:18.121Z,13.93
2018-11-07T02:04:46.341Z,14.47
2018-11-07T02:07:14.505Z,13.03
2018-11-07T02:09:42.699Z,12.40
2018-11-07T02:12:10.873Z,13.67
2018-11-07T02:14:39.028Z,12.43
2018-11-07T02:17:07.208Z,12.73
2018-11-07T02:19:35.976Z,12.97
2018-11-07T02:22:04.578Z,13.80
2018-11-07T02:24:32.781Z,14.13
2018-11-07T02:27:00.943Z,13.73
2018-11-07T02:29:29.116Z,12.17
2018-11-07T02:31:57.407Z,12.45
2018-11-07T02:34:25.571Z,12.73
2018-11-07T02:36:53.773Z,14.43
2018-11-07T02:39:22.024Z,12.20
2018-11-07T02:41:50.777Z,13.00
2018-11-07T02:44:18.986Z,12.63
2018-11-07T02:46:47.166Z,13.40
2018-11-07T02:49:15.473Z,13.00
2018-11-07T02:51:43.697Z,13.57
2018-11-07T02:54:11.892Z,13.37
2018-11-07T02:56:40.157Z,13.00
2018-11-07T02:59:08.315Z,13.50
2018-11-07T03:01:36.557Z,13.00
2018-11-07T03:04:04.873Z,12.73
2018-11-07T03:06:33.637Z,12.17
2018-11-07T03:09:01.820Z,13.80
2018-11-07T03:11:30.025Z,13.50
2018-11-07T03:13:58.242Z,12.77
2018-11-07T03:16:27.293Z,13.57
2018-11-07T03:18:55.588Z,13.83
2018-11-07T03:21:23.829Z,14.03
2018-11-07T03:23:52.020Z,15.40
2018-11-07T03:26:20.305Z,14.10
2018-11-07T03:28:48.563Z,13.60
2018-11-07T03:31:16.747Z,13.33
2018-11-07T03:33:45.016Z,12.87
2018-11-07T03:36:13.248Z,13.90
2018-11-07T03:38:41.468Z,12.50
2018-11-07T03:41:09.670Z,11.73
2018-11-07T03:43:38.145Z,12.40
2018-11-07T03:46:06.412Z,13.73
2018-11-07T03:48:34.681Z,13.60
2018-11-07T03:51:02.957Z,12.60
2018-11-07T03:53:31.110Z,12.40
2018-11-07T03:55:59.276Z,13.87
2018-11-07T03:58:28.114Z,13.97
2018-11-07T04:00:56.616Z,13.50
2018-11-07T04:03:24.777Z,14.10
2018-11-07T04:05:53.009Z,14.13
2018-11-07T04:08:21.268Z,14.30
2018-11-07T04:10:49.433Z,13.90
2018-11-07T04:13:18.077Z,13.60
2018-11-07T04:15:46.339Z,14.13
2018-11-07T04:18:14.505Z,13.90
2018-11-07T04:20:42.661Z,14.30
2018-11-07T04:23:10.839Z,14.00
2018-11-07T04:25:39.292Z,23.93
2018-11-07T04:28:07.514Z,14.30
2018-11-07T04:30:35.797Z,14.13
2018-11-07T04:33:04.273Z,14.70
2018-11-07T04:35:32.529Z,13.63
2018-11-07T04:38:00.697Z,14.77
2018-11-07T04:40:28.864Z,23.87
2018-11-07T04:42:57.357Z,16.90
2018-11-07T04:45:25.541Z,14.23
2018-11-07T04:47:53.822Z,12.63
2018-11-07T04:50:22.007Z,14.20
2018-11-07T04:52:50.180Z,18.83
2018-11-07T04:55:18.574Z,14.73
2018-11-07T04:57:46.818Z,13.90
2018-11-07T05:00:15.095Z,12.67
2018-11-07T05:02:43.438Z,12.90
2018-11-07T05:05:11.818Z,13.23
2018-11-07T05:07:40.044Z,14.47
2018-11-07T05:10:09.284Z,13.57
2018-11-07T05:12:37.446Z,11.90
2018-11-07T05:15:06.400Z,13.00
2018-11-07T05:17:34.571Z,12.23
2018-11-07T05:20:02.745Z,11.20
2018-11-07T05:22:30.957Z,12.03
2018-11-07T05:24:59.129Z,12.40
2018-11-07T05:27:27.773Z,12.87
2018-11-07T05:29:55.961Z,12.20
2018-11-07T05:32:24.196Z,12.10
2018-11-07T05:34:52.445Z,13.13
2018-11-07T05:37:21.320Z,13.37
2018-11-07T05:39:49.485Z,13.10
2018-11-07T05:42:18.367Z,13.20
2018-11-07T05:44:46.644Z,14.60
2018-11-07T05:47:14.810Z,13.90
2018-11-07T05:49:42.980Z,14.27
2018-11-07T05:52:11.486Z,13.97
2018-11-07T05:54:39.683Z,16.47
2018-11-07T05:57:07.928Z,15.77
2018-11-07T05:59:36.517Z,15.53
2018-11-07T06:02:05.304Z,15.30
2018-11-07T06:04:33.456Z,15.43
2018-11-07T06:07:01.664Z,14.00
2018-11-07T06:09:30.117Z,14.77
2018-11-07T06:11:58.814Z,14.90
2018-11-07T06:14:27.095Z,14.20
2018-11-07T06:16:55.362Z,13.43
2018-11-07T06:19:23.630Z,13.73
2018-11-07T06:21:51.809Z,12.60
2018-11-07T06:24:20.105Z,16.00
2018-11-07T06:26:48.269Z,18.70
2018-11-07T06:29:16.557Z,17.83
2018-11-07T06:31:51.357Z,19.83
2018-11-07T06:34:19.549Z,16.13
2018-11-07T06:36:48.125Z,16.90
2018-11-07T06:39:16.294Z,15.87
2018-11-07T06:41:44.924Z,17.37
2018-11-07T06:44:13.103Z,15.53
2018-11-07T06:46:41.263Z,16.43
2018-11-07T06:49:09.521Z,15.20
2018-11-07T06:51:37.788Z,15.10
2018-11-07T06:54:06.166Z,16.10
2018-11-07T06:56:34.620Z,15.90
2018-11-07T06:59:03.038Z,14.60
2018-11-07T07:01:31.257Z,14.65
2018-11-07T07:03:59.490Z,14.43
2018-11-07T07:06:27.660Z,13.47
2018-11-07T07:08:55.846Z,12.90
2018-11-07T07:11:24.116Z,12.83
2018-11-07T07:13:52.282Z,12.90
2018-11-07T07:16:20.440Z,13.60
2018-11-07T07:18:49.429Z,14.77
2018-11-07T07:21:17.549Z,14.00
2018-11-07T07:23:45.781Z,13.10
2018-11-07T07:26:13.967Z,15.30
2018-11-07T07:28:42.242Z,16.00
2018-11-07T07:31:10.492Z,15.23
2018-11-07T07:33:38.721Z,16.03
2018-11-07T07:36:06.834Z,16.47
2018-11-07T07:38:35.005Z,14.90
2018-11-07T07:41:03.498Z,13.77
2018-11-07T07:43:31.692Z,14.00
2018-11-07T07:45:59.976Z,12.77
2018-11-07T07:48:28.157Z,14.10
2018-11-07T07:50:56.655Z,12.60
2018-11-07T07:53:24.816Z,12.90
2018-11-07T07:55:53.041Z,14.23
2018-11-07T07:58:21.193Z,11.90
2018-11-07T08:00:49.656Z,12.30
2018-11-07T08:03:17.841Z,15.20
2018-11-07T08:05:46.078Z,12.20
2018-11-07T08:08:14.249Z,11.90
2018-11-07T08:10:42.442Z,12.00
2018-11-07T08:13:10.702Z,12.90
2018-11-07T08:15:38.984Z,12.67
2018-11-07T08:18:07.340Z,13.00
2018-11-07T08:20:35.900Z,12.63
2018-11-07T08:23:04.066Z,12.23
2018-11-07T08:25:32.318Z,11.90
2018-11-07T08:28:00.549Z,11.70
2018-11-07T08:30:28.806Z,11.37
2018-11-07T08:32:57.042Z,11.83
2018-11-07T08:35:25.311Z,12.70
2018-11-07T08:37:53.493Z,12.03
2018-11-07T08:40:23.054Z,11.77
2018-11-07T08:42:51.417Z,12.30
2018-11-07T08:45:19.603Z,12.50
2018-11-07T08:47:48.334Z,14.00
2018-11-07T08:50:19.222Z,15.10
2018-11-07T08:52:47.958Z,15.60
2018-11-07T08:55:18.525Z,14.57
2018-11-07T08:57:46.693Z,14.60
2018-11-07T09:00:16.210Z,13.33
2018-11-07T09:02:44.801Z,14.17
2018-11-07T09:05:13.581Z,14.13
2018-11-07T09:07:42.383Z,12.77
2018-11-07T09:10:12.073Z,14.10
2018-11-07T09:12:40.744Z,13.65
2018-11-07T09:15:11.676Z,13.77
2018-11-07T09:17:39.930Z,15.60
2018-11-07T09:20:10.033Z,15.67
2018-11-07T09:22:38.397Z,15.35
2018-11-07T09:25:06.858Z,14.80
2018-11-07T09:27:35.343Z,14.97
2018-11-07T09:30:03.532Z,15.70
2018-11-07T09:32:31.714Z,15.20
2018-11-07T09:34:59.884Z,16.17
2018-11-07T09:37:28.102Z,15.47
2018-11-07T09:39:56.314Z,13.93
2018-11-07T09:42:24.554Z,14.80
2018-11-07T09:44:53.123Z,14.50
2018-11-07T09:47:21.307Z,13.47
2018-11-07T09:49:49.478Z,14.53
2018-11-07T09:52:17.757Z,14.00
2018-11-07T09:54:46.014Z,14.43
2018-11-07T09:57:14.197Z,13.40
2018-11-07T09:59:42.403Z,12.90
2018-11-07T10:02:10.575Z,12.57
2018-11-07T10:04:38.809Z,12.60
2018-11-07T10:07:06.997Z,11.87
2018-11-07T10:09:35.169Z,11.17
2018-11-07T10:12:03.449Z,11.30
2018-11-07T10:14:31.722Z,11.93
2018-11-07T10:16:59.967Z,12.20
2018-11-07T10:19:28.161Z,11.57
2018-11-07T10:21:56.352Z,12.37
2018-11-07T10:24:24.504Z,11.57
2018-11-07T10:26:53.001Z,12.23
2018-11-07T10:29:21.491Z,13.17
2018-11-07T10:31:49.297Z,12.57
2018-11-07T10:34:17.452Z,11.47
2018-11-07T10:36:45.698Z,12.30
2018-11-07T10:39:14.030Z,12.07
2018-11-07T10:41:42.202Z,12.65
2018-11-07T10:44:10.424Z,12.00
2018-11-07T10:46:38.540Z,11.17
2018-11-07T10:49:06.713Z,11.37
2018-11-07T10:51:34.919Z,10.70
2018-11-07T10:54:03.125Z,11.00
2018-11-07T10:56:31.302Z,10.63
2018-11-07T10:58:59.477Z,10.40
2018-11-07T11:01:33.233Z,11.40
2018-11-07T11:04:01.459Z,9.73
2018-11-07T11:06:29.721Z,10.60
2018-11-07T11:08:58.829Z,11.47
2018-11-07T11:11:27.177Z,10.77
2018-11-07T11:13:55.271Z,9.50
2018-11-07T11:16:23.763Z,12.53
2018-11-07T11:18:52.275Z,10.53
2018-11-07T11:21:20.468Z,11.37
2018-11-07T11:23:49.456Z,11.17
2018-11-07T11:26:17.627Z,10.50
2018-11-07T11:28:45.844Z,11.03
2018-11-07T11:31:14.032Z,11.23
2018-11-07T11:33:42.330Z,11.27
2018-11-07T11:36:10.672Z,10.40
2018-11-07T11:38:38.949Z,11.47
2018-11-07T11:41:07.317Z,9.90
2018-11-07T11:43:35.821Z,12.20
2018-11-07T11:46:04.006Z,13.30
2018-11-07T11:48:32.281Z,11.20
2018-11-07T11:51:00.580Z,11.83
2018-11-07T11:53:28.718Z,10.90
2018-11-07T11:55:57.231Z,11.90
2018-11-07T11:58:25.985Z,11.73
2018-11-07T12:00:54.269Z,12.43
2018-11-07T12:03:22.459Z,12.60
2018-11-07T12:05:50.629Z,13.87
2018-11-07T12:08:18.857Z,13.17
2018-11-07T12:10:47.118Z,11.70
2018-11-07T12:13:15.381Z,13.13
2018-11-07T12:15:43.504Z,12.37
2018-11-07T12:18:11.697Z,11.97
2018-11-07T12:20:39.967Z,12.10
2018-11-07T12:23:08.243Z,13.40
2018-11-07T12:25:36.415Z,12.60
2018-11-07T12:28:04.709Z,14.13
2018-11-07T12:30:32.886Z,12.50
2018-11-07T12:33:01.468Z,15.03
2018-11-07T12:35:29.644Z,13.67
2018-11-07T12:37:57.888Z,14.20
2018-11-07T12:40:26.083Z,13.20
2018-11-07T12:42:54.461Z,14.47
2018-11-07T12:45:22.615Z,12.90
2018-11-07T12:47:50.962Z,12.70
2018-11-07T12:50:20.886Z,12.97
2018-11-07T12:52:48.981Z,13.43
2018-11-07T12:55:17.746Z,13.23
2018-11-07T12:57:46.004Z,12.40
2018-11-07T13:00:16.948Z,13.30
2018-11-07T13:02:45.588Z,13.07
2018-11-07T13:05:14.948Z,13.63
2018-11-07T13:07:44.743Z,12.80
2018-11-07T13:10:16.158Z,11.63
2018-11-07T13:12:45.018Z,11.50
2018-11-07T13:15:13.880Z,12.80
2018-11-07T13:17:42.305Z,13.10
2018-11-07T13:20:12.891Z,12.37
2018-11-07T13:22:41.414Z,11.43
2018-11-07T13:25:10.485Z,12.27
2018-11-07T13:27:38.715Z,12.97
2018-11-07T13:30:10.112Z,14.23
2018-11-07T13:32:38.741Z,12.50
2018-11-07T13:35:07.678Z,12.00
2018-11-07T13:37:36.154Z,10.33
2018-11-07T13:40:05.801Z,11.10
2018-11-07T13:42:33.980Z,11.50
2018-11-07T13:45:02.250Z,11.60
2018-11-07T13:47:30.547Z,12.80
2018-11-07T13:49:58.966Z,12.83
2018-11-07T13:52:27.178Z,12.60
2018-11-07T13:54:55.364Z,10.83
2018-11-07T13:57:23.624Z,11.80
2018-11-07T13:59:51.822Z,11.93
2018-11-07T14:02:20.094Z,12.43
2018-11-07T14:04:48.368Z,12.00
2018-11-07T14:07:16.574Z,12.40
2018-11-07T14:09:44.835Z,12.67
2018-11-07T14:12:13.017Z,11.70
2018-11-07T14:14:41.254Z,13.47
2018-11-07T14:17:09.456Z,12.40
2018-11-07T14:19:37.645Z,12.50
2018-11-07T14:22:05.889Z,12.23
2018-11-07T14:24:34.140Z,12.20
2018-11-07T14:27:02.326Z,11.70
2018-11-07T14:29:30.521Z,11.60
2018-11-07T14:31:58.762Z,13.20
2018-11-07T14:34:26.974Z,12.23
2018-11-07T14:36:55.209Z,11.80
2018-11-07T14:39:23.421Z,11.97
2018-11-07T14:41:51.614Z,12.07
2018-11-07T14:44:19.857Z,10.77
2018-11-07T14:46:48.361Z,12.23
2018-11-07T14:49:16.625Z,11.53
2018-11-07T14:51:44.901Z,11.40
2018-11-07T14:54:13.096Z,11.67
2018-11-07T14:56:41.237Z,12.10
2018-11-07T14:59:09.396Z,11.67
2018-11-07T15:01:37.623Z,12.13
2018-11-07T15:04:06.172Z,11.70
2018-11-07T15:06:34.381Z,13.00
2018-11-07T15:09:02.702Z,12.50
2018-11-07T15:11:31.340Z,13.13
2018-11-07T15:13:59.386Z,12.87
2018-11-07T15:16:27.579Z,12.63
2018-11-07T15:18:55.836Z,12.30
2018-11-07T15:21:23.997Z,12.97
2018-11-07T15:23:52.198Z,12.90
2018-11-07T15:26:20.360Z,13.47
2018-11-07T15:28:48.526Z,12.70
2018-11-07T15:31:16.756Z,13.87
2018-11-07T15:33:44.986Z,14.20
2018-11-07T15:36:13.517Z,14.13
2018-11-07T15:38:41.614Z,14.03
2018-11-07T15:41:09.785Z,14.30
2018-11-07T15:43:37.960Z,14.20
2018-11-07T15:46:06.133Z,16.77
2018-11-07T15:48:34.388Z,14.93
2018-11-07T15:51:07.957Z,13.87
2018-11-07T15:53:36.217Z,14.60
2018-11-07T15:56:06.396Z,15.47
2018-11-07T15:58:34.645Z,15.70
2018-11-07T16:01:02.877Z,14.23
2018-11-07T16:03:49.667Z,16.03
2018-11-07T16:06:19.895Z,15.37
2018-11-07T16:08:48.734Z,16.73
2018-11-07T16:11:16.922Z,16.37
2018-11-07T16:13:45.156Z,16.27
2018-11-07T16:16:13.530Z,15.93
2018-11-07T16:18:41.720Z,16.90
2018-11-07T16:21:09.990Z,15.43
2018-11-07T16:23:38.438Z,16.57
2018-11-07T16:26:06.664Z,17.10
2018-11-07T16:28:34.941Z,17.73
2018-11-07T16:31:03.094Z,18.03
2018-11-07T16:33:31.698Z,17.27
2018-11-07T16:35:59.957Z,17.97
2018-11-07T16:38:28.117Z,18.23
2018-11-07T16:40:56.346Z,18.97
2018-11-07T16:43:24.501Z,18.70
2018-11-07T16:45:52.667Z,18.90
2018-11-07T16:48:20.987Z,19.70
2018-11-07T16:50:49.261Z,20.40
2018-11-07T16:53:17.481Z,31.40
2018-11-07T16:55:46.719Z,21.63
2018-11-07T16:58:15.089Z,20.03
2018-11-07T17:00:43.360Z,21.23
2018-11-07T17:03:11.630Z,21.80
2018-11-07T17:05:39.796Z,19.87
2018-11-07T17:08:08.014Z,19.70
2018-11-07T17:10:36.546Z,20.03
2018-11-07T17:13:04.812Z,21.70
2018-11-07T17:15:33.114Z,19.40
2018-11-07T17:18:01.584Z,21.50
2018-11-07T17:20:29.903Z,19.50
2018-11-07T17:22:58.066Z,21.60
2018-11-07T17:25:26.834Z,22.40
2018-11-07T17:27:55.099Z,26.10
2018-11-07T17:30:23.375Z,24.87
2018-11-07T17:32:51.554Z,30.40
2018-11-07T17:35:19.849Z,34.20
2018-11-07T17:37:48.355Z,28.27
2018-11-07T17:40:18.789Z,21.33
2018-11-07T17:42:47.368Z,21.57
2018-11-07T17:45:17.413Z,22.53
2018-11-07T17:47:45.996Z,23.70
2018-11-07T17:50:15.264Z,22.27
2018-11-07T17:52:43.752Z,22.10
2018-11-07T17:55:13.053Z,23.87
2018-11-07T17:57:41.403Z,25.70
2018-11-07T18:00:12.061Z,24.67
2018-11-07T18:02:40.233Z,21.82
2018-11-07T18:05:08.604Z,22.73
2018-11-07T18:07:37.900Z,23.90
2018-11-07T18:10:09.319Z,22.40
2018-11-07T18:12:37.475Z,23.80
2018-11-07T18:15:06.828Z,22.23
2018-11-07T18:17:35.113Z,20.97
2018-11-07T18:20:03.358Z,22.03
2018-11-07T18:22:31.609Z,31.80
2018-11-07T18:25:00.136Z,26.00
2018-11-07T18:27:29.517Z,27.47
2018-11-07T18:29:57.670Z,24.23
2018-11-07T18:32:25.902Z,24.97
2018-11-07T18:34:54.124Z,27.57
2018-11-07T18:37:22.369Z,30.60
2018-11-07T18:39:50.597Z,28.57
2018-11-07T18:42:18.785Z,32.47
2018-11-07T18:44:47.019Z,28.83
2018-11-07T18:47:15.253Z,28.40
2018-11-07T18:49:43.437Z,30.27
2018-11-07T18:52:11.617Z,25.67
2018-11-07T18:54:39.817Z,24.07
2018-11-07T18:57:08.953Z,22.80
2018-11-07T18:59:37.689Z,22.50
2018-11-07T19:02:06.877Z,23.40
2018-11-07T19:04:35.922Z,24.30
2018-11-07T19:07:04.191Z,23.67
2018-11-07T19:09:32.388Z,24.60
2018-11-07T19:12:01.220Z,26.20
2018-11-07T19:14:30.024Z,27.00
2018-11-07T19:16:59.395Z,26.30
2018-11-07T19:19:28.757Z,29.77
2018-11-07T19:21:58.316Z,28.77
2018-11-07T19:24:26.518Z,26.90
2018-11-07T19:26:54.776Z,30.70
2018-11-07T19:29:22.905Z,28.83
2018-11-07T19:31:51.158Z,29.67
2018-11-07T19:34:20.433Z,32.10
2018-11-07T19:36:48.641Z,34.17
2018-11-07T19:39:16.849Z,32.30
2018-11-07T19:41:45.153Z,29.77
2018-11-07T19:44:13.353Z,29.10
2018-11-07T19:46:41.659Z,32.23
2018-11-07T19:49:09.857Z,33.63
2018-11-07T19:51:38.105Z,32.27
2018-11-07T19:54:06.315Z,30.37
2018-11-07T19:56:34.521Z,30.53
2018-11-07T19:59:02.802Z,30.93
2018-11-07T20:01:31.079Z,30.87
2018-11-07T20:03:59.262Z,34.30
2018-11-07T20:06:27.524Z,36.47
2018-11-07T20:09:02.602Z,32.90
2018-11-07T20:11:30.863Z,30.57
2018-11-07T20:13:59.088Z,32.20
2018-11-07T20:16:27.413Z,29.90
2018-11-07T20:18:55.674Z,28.47
2018-11-07T20:21:23.872Z,30.30
2018-11-07T20:23:52.054Z,31.00
2018-11-07T20:26:20.635Z,29.60
2018-11-07T20:28:48.996Z,37.30
2018-11-07T20:31:17.047Z,29.60
2018-11-07T20:33:45.318Z,27.80
2018-11-07T20:36:13.569Z,27.03
2018-11-07T20:38:41.658Z,28.07
2018-11-07T20:41:09.987Z,25.23
2018-11-07T20:43:38.579Z,26.77
2018-11-07T20:46:06.799Z,27.23
2018-11-07T20:48:35.088Z,27.33
2018-11-07T20:51:03.291Z,25.57
2018-11-07T20:53:31.471Z,27.57
2018-11-07T20:56:02.665Z,24.83
2018-11-07T20:58:31.057Z,26.73
2018-11-07T21:00:59.317Z,21.40
2018-11-07T21:03:28.612Z,24.90
2018-11-07T21:05:57.853Z,26.50
2018-11-07T21:08:27.393Z,33.13
2018-11-07T21:10:56.500Z,27.43
2018-11-07T21:13:25.751Z,27.37
2018-11-07T21:15:54.005Z,27.60
2018-11-07T21:18:22.286Z,32.07
2018-11-07T21:20:50.461Z,36.63
2018-11-07T21:23:18.644Z,28.53
2018-11-07T21:25:46.887Z,27.97
2018-11-07T21:28:15.068Z,27.80
2018-11-07T21:30:43.664Z,28.07
2018-11-07T21:33:11.836Z,24.73
2018-11-07T21:35:40.006Z,23.93
2018-11-07T21:38:08.263Z,25.27
2018-11-07T21:40:36.451Z,26.03
2018-11-07T21:43:04.809Z,25.70
2018-11-07T21:45:33.002Z,25.87
2018-11-07T21:48:01.177Z,27.60
2018-11-07T21:50:29.343Z,25.70
2018-11-07T21:52:57.513Z,25.17
2018-11-07T21:55:25.699Z,26.33
2018-11-07T21:57:53.867Z,26.40
2018-11-07T22:00:22.033Z,31.50
2018-11-07T22:02:50.281Z,26.70
2018-11-07T22:05:18.743Z,26.90
2018-11-07T22:07:46.962Z,35.60
2018-11-07T22:10:16.592Z,29.03
2018-11-07T22:12:44.849Z,27.43
2018-11-07T22:15:13.118Z,28.40
2018-11-07T22:17:41.477Z,30.50
2018-11-07T22:20:14.236Z,28.57
2018-11-07T22:22:42.744Z,29.47
2018-11-07T22:25:10.916Z,32.73
2018-11-07T22:27:39.228Z,31.20
2018-11-07T22:30:09.193Z,29.37
2018-11-07T22:32:38.157Z,28.43
2018-11-07T22:35:07.391Z,29.40
2018-11-07T22:37:35.636Z,29.57
2018-11-07T22:40:04.114Z,28.77
2018-11-07T22:42:32.307Z,29.02
2018-11-07T22:45:00.552Z,33.53
2018-11-07T22:47:28.828Z,29.10
2018-11-07T22:49:57.086Z,32.20
2018-11-07T22:52:25.251Z,33.73
2018-11-07T22:54:53.538Z,30.30
2018-11-07T22:57:21.709Z,32.27
2018-11-07T22:59:49.962Z,31.07
2018-11-07T23:02:18.166Z,31.77
2018-11-07T23:04:46.334Z,32.17
2018-11-07T23:07:15.439Z,35.17
2018-11-07T23:09:43.763Z,34.10
2018-11-07T23:12:12.003Z,33.37
2018-11-07T23:14:40.295Z,33.33
2018-11-07T23:17:08.537Z,35.17
2018-11-07T23:19:36.701Z,34.37
2018-11-07T23:22:05.429Z,33.43
2018-11-07T23:24:33.633Z,35.13
2018-11-07T23:27:01.806Z,35.77
2018-11-07T23:29:29.982Z,33.00
2018-11-07T23:31:58.201Z,35.20
2018-11-07T23:34:26.365Z,34.00
2018-11-07T23:36:54.550Z,34.67
2018-11-07T23:39:22.745Z,33.63
2018-11-07T23:41:51.000Z,34.27
2018-11-07T23:44:19.212Z,32.57
2018-11-07T23:46:47.372Z,31.67
2018-11-07T23:49:15.624Z,32.97
2018-11-07T23:51:49.908Z,32.53
2018-11-07T23:54:19.604Z,29.70
2018-11-07T23:56:47.980Z,31.80
2018-11-07T23:59:16.172Z,28.97
